sensor_id;sensor_type;location;lat;lon;timestamp;pressure;altitude;pressure_sealevel;temperature;humidity
69316;BME280;56445;43.552;5.034;2023-05-08T05:13:24;101562.56;;;33.94;20.64
69316;BME280;56445;43.552;5.034;2023-05-08T05:15:54;101578.06;;;34.04;20.87
69316;BME280;56445;43.552;5.034;2023-05-08T05:18:21;101587.16;;;34.13;20.83
69316;BME280;56445;43.552;5.034;2023-05-08T05:20:49;101566.63;;;34.09;20.68
69316;BME280;56445;43.552;5.034;2023-05-08T05:23:24;101585.09;;;34.23;21.04
69316;BME280;56445;43.552;5.034;2023-05-08T05:25:51;101561.50;;;34.11;20.78
69316;BME280;56445;43.552;5.034;2023-05-08T05:39:17;101546.25;;;34.21;20.81
69316;BME280;56445;43.552;5.034;2023-05-08T05:41:46;101586.00;;;34.39;20.79
69316;BME280;56445;43.552;5.034;2023-05-08T05:44:30;101538.75;;;34.13;20.79
69316;BME280;56445;43.552;5.034;2023-05-08T05:47:20;101547.84;;;34.10;20.85
69316;BME280;56445;43.552;5.034;2023-05-08T05:50:01;101570.88;;;34.15;20.65
69316;BME280;56445;43.552;5.034;2023-05-08T05:52:42;101572.38;;;34.13;21.11
69316;BME280;56445;43.552;5.034;2023-05-08T05:55:10;101581.25;;;34.15;20.99
69316;BME280;56445;43.552;5.034;2023-05-08T05:57:37;101590.31;;;34.24;20.95
69316;BME280;56445;43.552;5.034;2023-05-08T06:00:05;101586.84;;;34.27;21.10
69316;BME280;56445;43.552;5.034;2023-05-08T06:02:32;101585.09;;;34.35;21.09
69316;BME280;56445;43.552;5.034;2023-05-08T06:05:01;101590.91;;;34.42;20.95
69316;BME280;56445;43.552;5.034;2023-05-08T06:07:29;101604.78;;;34.51;20.77
69316;BME280;56445;43.552;5.034;2023-05-08T06:09:56;101561.41;;;34.32;21.03
69316;BME280;56445;43.552;5.034;2023-05-08T06:12:23;101560.78;;;34.39;21.08
69316;BME280;56445;43.552;5.034;2023-05-08T06:14:51;101563.31;;;34.56;21.11
69316;BME280;56445;43.552;5.034;2023-05-08T06:17:30;101571.09;;;34.75;20.88
69316;BME280;56445;43.552;5.034;2023-05-08T06:20:25;101572.91;;;34.96;20.93
69316;BME280;56445;43.552;5.034;2023-05-08T06:22:52;101577.66;;;35.08;21.18
69316;BME280;56445;43.552;5.034;2023-05-08T06:25:19;101572.50;;;35.10;21.01
69316;BME280;56445;43.552;5.034;2023-05-08T06:27:49;101582.59;;;35.27;21.27
69316;BME280;56445;43.552;5.034;2023-05-08T06:30:17;101548.28;;;35.18;21.17
69316;BME280;56445;43.552;5.034;2023-05-08T06:32:45;101554.28;;;35.32;20.99
69316;BME280;56445;43.552;5.034;2023-05-08T06:35:12;101562.44;;;35.37;20.97
69316;BME280;56445;43.552;5.034;2023-05-08T06:37:41;101547.84;;;35.31;20.92
69316;BME280;56445;43.552;5.034;2023-05-08T06:40:08;101556.81;;;35.37;20.98
69316;BME280;56445;43.552;5.034;2023-05-08T06:42:41;101582.00;;;35.49;21.12
69316;BME280;56445;43.552;5.034;2023-05-08T06:45:29;101562.25;;;35.46;21.14
69316;BME280;56445;43.552;5.034;2023-05-08T06:47:56;101567.59;;;35.51;21.03
69316;BME280;56445;43.552;5.034;2023-05-08T06:50:23;101577.66;;;35.52;21.04
69316;BME280;56445;43.552;5.034;2023-05-08T06:52:51;101543.16;;;35.35;20.84
69316;BME280;56445;43.552;5.034;2023-05-08T06:55:18;101568.78;;;35.50;21.07
69316;BME280;56445;43.552;5.034;2023-05-08T06:57:46;101558.00;;;35.52;20.89
69316;BME280;56445;43.552;5.034;2023-05-08T07:00:13;101551.94;;;35.50;21.10
69316;BME280;56445;43.552;5.034;2023-05-08T07:02:40;101557.19;;;35.51;20.98
69316;BME280;56445;43.552;5.034;2023-05-08T07:05:11;101587.34;;;35.70;21.00
69316;BME280;56445;43.552;5.034;2023-05-08T07:07:41;101567.22;;;35.52;21.11
69316;BME280;56445;43.552;5.034;2023-05-08T07:10:12;101562.63;;;35.60;20.94
69316;BME280;56445;43.552;5.034;2023-05-08T07:13:05;101571.56;;;35.66;20.68
69316;BME280;56445;43.552;5.034;2023-05-08T07:15:35;101548.47;;;35.57;20.95
69316;BME280;56445;43.552;5.034;2023-05-08T07:18:11;101564.84;;;35.67;21.15
69316;BME280;56445;43.552;5.034;2023-05-08T07:20:38;101591.00;;;35.87;21.20
69316;BME280;56445;43.552;5.034;2023-05-08T07:23:05;101571.97;;;35.80;21.01
69316;BME280;56445;43.552;5.034;2023-05-08T07:25:33;101568.53;;;35.87;20.74
69316;BME280;56445;43.552;5.034;2023-05-08T07:28:00;101566.44;;;35.84;20.94
69316;BME280;56445;43.552;5.034;2023-05-08T07:30:27;101575.50;;;35.93;20.87
69316;BME280;56445;43.552;5.034;2023-05-08T07:32:54;101565.44;;;35.92;20.93
69316;BME280;56445;43.552;5.034;2023-05-08T07:35:22;101594.69;;;36.07;20.92
69316;BME280;56445;43.552;5.034;2023-05-08T07:37:51;101589.97;;;36.11;21.04
69316;BME280;56445;43.552;5.034;2023-05-08T07:40:18;101574.94;;;36.03;20.96
69316;BME280;56445;43.552;5.034;2023-05-08T07:45:15;101587.00;;;35.88;21.39
69316;BME280;56445;43.552;5.034;2023-05-08T07:47:55;101573.69;;;35.85;21.11
69316;BME280;56445;43.552;5.034;2023-05-08T07:50:28;101593.25;;;35.97;21.04
69316;BME280;56445;43.552;5.034;2023-05-08T07:52:55;101600.22;;;36.03;20.88
69316;BME280;56445;43.552;5.034;2023-05-08T07:55:22;101572.16;;;35.87;20.91
69316;BME280;56445;43.552;5.034;2023-05-08T07:57:50;101578.00;;;35.98;20.87
69316;BME280;56445;43.552;5.034;2023-05-08T08:00:17;101594.69;;;36.07;20.93
69316;BME280;56445;43.552;5.034;2023-05-08T08:02:45;101597.41;;;36.19;21.27
69316;BME280;56445;43.552;5.034;2023-05-08T08:05:12;101575.56;;;36.12;21.04
69316;BME280;56445;43.552;5.034;2023-05-08T08:07:40;101576.81;;;36.15;21.33
69316;BME280;56445;43.552;5.034;2023-05-08T08:10:07;101596.31;;;36.24;21.26
69316;BME280;56445;43.552;5.034;2023-05-08T08:12:34;101589.75;;;36.36;21.17
69316;BME280;56445;43.552;5.034;2023-05-08T08:15:01;101556.47;;;36.18;20.97
69316;BME280;56445;43.552;5.034;2023-05-08T08:17:29;101588.22;;;36.38;21.26
69316;BME280;56445;43.552;5.034;2023-05-08T08:19:56;101595.34;;;36.51;21.06
69316;BME280;56445;43.552;5.034;2023-05-08T08:22:24;101587.50;;;36.61;21.14
69316;BME280;56445;43.552;5.034;2023-05-08T08:24:54;101580.94;;;36.72;21.02
69316;BME280;56445;43.552;5.034;2023-05-08T08:27:21;101591.56;;;36.79;21.31
69316;BME280;56445;43.552;5.034;2023-05-08T08:29:49;101587.63;;;36.84;21.07
69316;BME280;56445;43.552;5.034;2023-05-08T08:32:24;101584.44;;;36.85;21.06
69316;BME280;56445;43.552;5.034;2023-05-08T08:34:51;101569.09;;;36.83;21.07
69316;BME280;56445;43.552;5.034;2023-05-08T08:37:18;101592.19;;;36.92;20.94
69316;BME280;56445;43.552;5.034;2023-05-08T08:39:45;101578.22;;;36.96;21.04
69316;BME280;56445;43.552;5.034;2023-05-08T08:42:14;101566.09;;;36.91;21.13
69316;BME280;56445;43.552;5.034;2023-05-08T08:44:41;101588.13;;;37.09;20.87
69316;BME280;56445;43.552;5.034;2023-05-08T08:47:10;101563.09;;;37.04;21.23
69316;BME280;56445;43.552;5.034;2023-05-08T08:49:44;101587.63;;;37.23;21.20
69316;BME280;56445;43.552;5.034;2023-05-08T08:54:49;101562.66;;;37.21;20.67
69316;BME280;56445;43.552;5.034;2023-05-08T08:57:19;101571.69;;;37.30;20.91
69316;BME280;56445;43.552;5.034;2023-05-08T08:59:48;101560.44;;;37.30;20.88
69316;BME280;56445;43.552;5.034;2023-05-08T09:02:16;101571.88;;;37.41;20.79
69316;BME280;56445;43.552;5.034;2023-05-08T09:04:48;101575.19;;;37.47;20.58
69316;BME280;56445;43.552;5.034;2023-05-08T09:07:16;101571.59;;;37.50;20.92
69316;BME280;56445;43.552;5.034;2023-05-08T09:09:44;101607.72;;;37.67;20.73
69316;BME280;56445;43.552;5.034;2023-05-08T09:12:12;101606.19;;;37.70;20.98
69316;BME280;56445;43.552;5.034;2023-05-08T09:14:39;101575.28;;;37.54;21.02
69316;BME280;56445;43.552;5.034;2023-05-08T09:17:08;101587.81;;;37.57;20.97
69316;BME280;56445;43.552;5.034;2023-05-08T09:19:35;101590.41;;;37.65;20.79
69316;BME280;56445;43.552;5.034;2023-05-08T09:22:02;101581.81;;;37.58;20.89
69316;BME280;56445;43.552;5.034;2023-05-08T09:24:57;101605.66;;;37.87;21.09
69316;BME280;56445;43.552;5.034;2023-05-08T09:27:27;101584.13;;;37.76;21.22
69316;BME280;56445;43.552;5.034;2023-05-08T09:32:31;101578.78;;;37.94;20.81
69316;BME280;56445;43.552;5.034;2023-05-08T09:34:59;101614.31;;;38.25;20.84
69316;BME280;56445;43.552;5.034;2023-05-08T09:37:29;101609.88;;;38.24;21.05
69316;BME280;56445;43.552;5.034;2023-05-08T09:40:16;101619.63;;;38.30;20.70
69316;BME280;56445;43.552;5.034;2023-05-08T09:42:45;101612.41;;;38.33;21.25
69316;BME280;56445;43.552;5.034;2023-05-08T09:45:29;101616.78;;;38.53;20.80
69316;BME280;56445;43.552;5.034;2023-05-08T09:47:57;101594.31;;;38.34;21.25
69316;BME280;56445;43.552;5.034;2023-05-08T09:50:25;101608.81;;;38.62;20.60
69316;BME280;56445;43.552;5.034;2023-05-08T09:52:52;101604.09;;;38.70;20.92
69316;BME280;56445;43.552;5.034;2023-05-08T09:55:20;101594.28;;;38.91;20.59
69316;BME280;56445;43.552;5.034;2023-05-08T09:57:55;101597.03;;;39.17;20.60
69316;BME280;56445;43.552;5.034;2023-05-08T10:00:27;101611.09;;;39.51;20.84
69316;BME280;56445;43.552;5.034;2023-05-08T10:03:00;101609.00;;;39.85;20.86
69316;BME280;56445;43.552;5.034;2023-05-08T10:05:32;101599.47;;;40.04;20.83
69316;BME280;56445;43.552;5.034;2023-05-08T10:08:18;101598.94;;;40.47;21.04
69316;BME280;56445;43.552;5.034;2023-05-08T10:10:45;101595.69;;;40.41;20.79
69316;BME280;56445;43.552;5.034;2023-05-08T10:13:13;101619.59;;;40.55;20.83
69316;BME280;56445;43.552;5.034;2023-05-08T10:15:41;101618.63;;;41.13;20.63
69316;BME280;56445;43.552;5.034;2023-05-08T10:18:09;101607.38;;;41.53;21.00
69316;BME280;56445;43.552;5.034;2023-05-08T10:20:40;101602.13;;;41.30;20.89
69316;BME280;56445;43.552;5.034;2023-05-08T10:23:11;101609.81;;;41.47;20.66
69316;BME280;56445;43.552;5.034;2023-05-08T10:25:47;101617.13;;;42.09;20.40
69316;BME280;56445;43.552;5.034;2023-05-08T10:28:43;101615.47;;;42.26;20.88
69316;BME280;56445;43.552;5.034;2023-05-08T10:31:11;101605.41;;;41.89;20.69
69316;BME280;56445;43.552;5.034;2023-05-08T10:33:44;101602.91;;;42.34;20.29
69316;BME280;56445;43.552;5.034;2023-05-08T10:36:11;101602.41;;;42.65;20.53
69316;BME280;56445;43.552;5.034;2023-05-08T10:38:40;101611.34;;;42.59;20.61
69316;BME280;56445;43.552;5.034;2023-05-08T10:41:09;101611.03;;;42.32;20.41
69316;BME280;56445;43.552;5.034;2023-05-08T10:43:40;101597.59;;;42.58;20.03
69316;BME280;56445;43.552;5.034;2023-05-08T10:46:28;101611.44;;;42.34;20.49
69316;BME280;56445;43.552;5.034;2023-05-08T10:52:00;101585.88;;;43.30;20.32
69316;BME280;56445;43.552;5.034;2023-05-08T10:57:27;101570.59;;;44.10;20.14
69316;BME280;56445;43.552;5.034;2023-05-08T10:59:55;101589.75;;;44.41;20.50
69316;BME280;56445;43.552;5.034;2023-05-08T11:02:26;101587.59;;;44.83;20.47
69316;BME280;56445;43.552;5.034;2023-05-08T11:05:16;101579.47;;;45.12;20.38
69316;BME280;56445;43.552;5.034;2023-05-08T11:07:56;101583.91;;;45.40;20.26
69316;BME280;56445;43.552;5.034;2023-05-08T11:10:31;101574.78;;;44.98;20.32
69316;BME280;56445;43.552;5.034;2023-05-08T11:12:59;101584.59;;;44.63;19.95
69316;BME280;56445;43.552;5.034;2023-05-08T11:15:37;101561.59;;;44.81;19.86
69316;BME280;56445;43.552;5.034;2023-05-08T11:18:07;101563.03;;;44.96;20.01
69316;BME280;56445;43.552;5.034;2023-05-08T11:20:54;101583.69;;;45.31;19.99
69316;BME280;56445;43.552;5.034;2023-05-08T11:23:25;101576.88;;;45.48;19.82
69316;BME280;56445;43.552;5.034;2023-05-08T11:26:00;101555.25;;;45.51;19.88
69316;BME280;56445;43.552;5.034;2023-05-08T11:28:31;101560.28;;;45.67;19.91
69316;BME280;56445;43.552;5.034;2023-05-08T11:31:15;101561.38;;;45.97;19.82
69316;BME280;56445;43.552;5.034;2023-05-08T11:33:42;101549.91;;;46.00;19.70
69316;BME280;56445;43.552;5.034;2023-05-08T11:36:19;101544.81;;;46.12;19.56
69316;BME280;56445;43.552;5.034;2023-05-08T11:39:08;101572.06;;;46.33;19.55
69316;BME280;56445;43.552;5.034;2023-05-08T11:41:36;101555.69;;;46.37;19.51
69316;BME280;56445;43.552;5.034;2023-05-08T11:44:16;101573.47;;;46.64;19.27
69316;BME280;56445;43.552;5.034;2023-05-08T11:46:50;101551.56;;;46.78;19.03
69316;BME280;56445;43.552;5.034;2023-05-08T11:49:20;101549.72;;;46.87;19.00
69316;BME280;56445;43.552;5.034;2023-05-08T11:51:53;101556.19;;;46.72;18.88
69316;BME280;56445;43.552;5.034;2023-05-08T11:54:24;101561.75;;;46.79;18.80
69316;BME280;56445;43.552;5.034;2023-05-08T11:56:55;101547.06;;;46.97;18.76
69316;BME280;56445;43.552;5.034;2023-05-08T11:59:23;101551.53;;;47.14;19.08
69316;BME280;56445;43.552;5.034;2023-05-08T12:01:50;101557.91;;;47.38;18.70
69316;BME280;56445;43.552;5.034;2023-05-08T12:04:20;101530.56;;;47.37;19.02
69316;BME280;56445;43.552;5.034;2023-05-08T12:06:48;101539.47;;;47.72;18.80
69316;BME280;56445;43.552;5.034;2023-05-08T12:09:17;101549.44;;;47.97;18.55
69316;BME280;56445;43.552;5.034;2023-05-08T12:11:55;101537.97;;;47.97;18.45
69316;BME280;56445;43.552;5.034;2023-05-08T12:14:23;101542.38;;;48.14;18.48
69316;BME280;56445;43.552;5.034;2023-05-08T12:16:50;101532.75;;;48.08;18.27
69316;BME280;56445;43.552;5.034;2023-05-08T12:19:17;101523.41;;;48.20;18.57
69316;BME280;56445;43.552;5.034;2023-05-08T12:21:49;101530.34;;;48.36;18.27
69316;BME280;56445;43.552;5.034;2023-05-08T12:24:18;101518.56;;;48.47;18.69
69316;BME280;56445;43.552;5.034;2023-05-08T12:26:52;101531.22;;;48.75;18.58
69316;BME280;56445;43.552;5.034;2023-05-08T12:29:20;101535.78;;;48.85;18.15
69316;BME280;56445;43.552;5.034;2023-05-08T12:31:48;101525.13;;;48.98;18.33
69316;BME280;56445;43.552;5.034;2023-05-08T12:34:16;101508.19;;;49.04;17.95
69316;BME280;56445;43.552;5.034;2023-05-08T12:36:43;101517.41;;;49.21;18.19
69316;BME280;56445;43.552;5.034;2023-05-08T12:39:15;101534.69;;;49.43;17.92
69316;BME280;56445;43.552;5.034;2023-05-08T12:41:50;101515.91;;;49.42;17.81
69316;BME280;56445;43.552;5.034;2023-05-08T12:44:22;101528.66;;;49.63;17.78
69316;BME280;56445;43.552;5.034;2023-05-08T12:46:56;101512.94;;;49.68;17.74
69316;BME280;56445;43.552;5.034;2023-05-08T12:49:30;101527.09;;;49.84;17.77
69316;BME280;56445;43.552;5.034;2023-05-08T12:52:08;101504.69;;;49.92;17.76
69316;BME280;56445;43.552;5.034;2023-05-08T12:54:37;101514.50;;;50.04;17.49
69316;BME280;56445;43.552;5.034;2023-05-08T12:57:09;101529.47;;;50.20;17.61
69316;BME280;56445;43.552;5.034;2023-05-08T12:59:37;101514.50;;;50.26;17.38
69316;BME280;56445;43.552;5.034;2023-05-08T13:02:17;101514.25;;;50.42;17.47
69316;BME280;56445;43.552;5.034;2023-05-08T13:04:47;101520.41;;;50.53;17.47
69316;BME280;56445;43.552;5.034;2023-05-08T13:07:21;101509.63;;;50.67;17.26
69316;BME280;56445;43.552;5.034;2023-05-08T13:09:58;101500.06;;;50.70;17.14
69316;BME280;56445;43.552;5.034;2023-05-08T13:12:28;101506.47;;;50.74;16.91
69316;BME280;56445;43.552;5.034;2023-05-08T13:15:05;101498.16;;;50.76;17.22
69316;BME280;56445;43.552;5.034;2023-05-08T13:17:48;101502.84;;;50.83;17.03
69316;BME280;56445;43.552;5.034;2023-05-08T13:21:26;101515.63;;;50.91;17.04
69316;BME280;56445;43.552;5.034;2023-05-08T13:23:47;101499.81;;;50.86;16.76
69316;BME280;56445;43.552;5.034;2023-05-08T13:26:29;101490.56;;;50.91;16.85
69316;BME280;56445;43.552;5.034;2023-05-08T13:29:18;101513.59;;;51.10;16.91
69316;BME280;56445;43.552;5.034;2023-05-08T13:31:54;101516.81;;;51.21;17.19
69316;BME280;56445;43.552;5.034;2023-05-08T13:34:47;101503.13;;;51.25;16.80
69316;BME280;56445;43.552;5.034;2023-05-08T13:37:21;101521.16;;;51.35;17.04
69316;BME280;56445;43.552;5.034;2023-05-08T13:39:49;101483.94;;;51.31;16.72
69316;BME280;56445;43.552;5.034;2023-05-08T13:42:28;101510.16;;;51.52;16.55
69316;BME280;56445;43.552;5.034;2023-05-08T13:45:21;101489.72;;;51.50;16.44
69316;BME280;56445;43.552;5.034;2023-05-08T13:47:51;101478.84;;;51.54;16.35
69316;BME280;56445;43.552;5.034;2023-05-08T13:50:22;101466.09;;;51.55;16.40
69316;BME280;56445;43.552;5.034;2023-05-08T13:53:04;101470.06;;;51.39;16.11
69316;BME280;56445;43.552;5.034;2023-05-08T13:55:45;101446.59;;;50.72;16.57
69316;BME280;56445;43.552;5.034;2023-05-08T13:58:17;101455.69;;;50.08;16.43
69316;BME280;56445;43.552;5.034;2023-05-08T14:00:44;101453.19;;;49.44;16.24
69316;BME280;56445;43.552;5.034;2023-05-08T14:03:11;101458.09;;;48.83;16.56
69316;BME280;56445;43.552;5.034;2023-05-08T14:05:38;101471.03;;;48.36;16.25
69316;BME280;56445;43.552;5.034;2023-05-08T14:08:06;101461.41;;;47.88;16.55
69316;BME280;56445;43.552;5.034;2023-05-08T14:10:35;101444.47;;;47.35;16.40
69316;BME280;56445;43.552;5.034;2023-05-08T14:13:02;101467.16;;;47.09;16.89
69316;BME280;56445;43.552;5.034;2023-05-08T14:15:30;101450.56;;;46.72;16.84
69316;BME280;56445;43.552;5.034;2023-05-08T14:18:03;101446.53;;;46.33;16.85
69316;BME280;56445;43.552;5.034;2023-05-08T14:20:30;101437.38;;;46.05;16.70
69316;BME280;56445;43.552;5.034;2023-05-08T14:22:57;101437.72;;;45.87;16.77
69316;BME280;56445;43.552;5.034;2023-05-08T14:25:25;101442.94;;;45.72;16.70
69316;BME280;56445;43.552;5.034;2023-05-08T14:27:53;101431.19;;;45.46;16.79
69316;BME280;56445;43.552;5.034;2023-05-08T14:30:20;101441.03;;;45.42;16.75
69316;BME280;56445;43.552;5.034;2023-05-08T14:32:47;101422.28;;;45.21;16.91
69316;BME280;56445;43.552;5.034;2023-05-08T14:35:14;101430.16;;;45.13;16.87
69316;BME280;56445;43.552;5.034;2023-05-08T14:37:41;101439.28;;;45.01;16.75
69316;BME280;56445;43.552;5.034;2023-05-08T14:40:09;101438.22;;;44.91;17.02
69316;BME280;56445;43.552;5.034;2023-05-08T14:42:36;101437.31;;;44.70;16.87
69316;BME280;56445;43.552;5.034;2023-05-08T14:45:04;101454.41;;;44.70;16.62
69316;BME280;56445;43.552;5.034;2023-05-08T14:47:31;101455.00;;;44.58;17.10
69316;BME280;56445;43.552;5.034;2023-05-08T14:49:59;101460.50;;;44.42;17.02
69316;BME280;56445;43.552;5.034;2023-05-08T14:52:26;101455.66;;;44.39;16.99
69316;BME280;56445;43.552;5.034;2023-05-08T14:54:53;101436.75;;;44.25;16.92
69316;BME280;56445;43.552;5.034;2023-05-08T14:57:21;101459.53;;;44.21;16.93
69316;BME280;56445;43.552;5.034;2023-05-08T14:59:48;101460.13;;;44.09;16.82
69316;BME280;56445;43.552;5.034;2023-05-08T15:02:22;101460.66;;;43.96;17.02
69316;BME280;56445;43.552;5.034;2023-05-08T15:04:49;101472.47;;;43.91;17.07
69316;BME280;56445;43.552;5.034;2023-05-08T15:07:31;101471.41;;;43.78;16.75
69316;BME280;56445;43.552;5.034;2023-05-08T15:09:59;101456.56;;;43.60;17.00
69316;BME280;56445;43.552;5.034;2023-05-08T15:12:50;101472.00;;;43.58;16.81
69316;BME280;56445;43.552;5.034;2023-05-08T15:15:17;101451.88;;;43.42;16.94
69316;BME280;56445;43.552;5.034;2023-05-08T15:17:44;101473.00;;;43.41;16.95
69316;BME280;56445;43.552;5.034;2023-05-08T15:20:14;101457.69;;;43.28;16.58
69316;BME280;56445;43.552;5.034;2023-05-08T15:22:42;101475.13;;;43.30;17.05
69316;BME280;56445;43.552;5.034;2023-05-08T15:25:09;101475.97;;;43.23;17.09
69316;BME280;56445;43.552;5.034;2023-05-08T15:27:36;101478.06;;;43.15;17.05
69316;BME280;56445;43.552;5.034;2023-05-08T15:30:04;101473.69;;;43.04;17.14
69316;BME280;56445;43.552;5.034;2023-05-08T15:32:45;101466.06;;;42.93;16.95
69316;BME280;56445;43.552;5.034;2023-05-08T15:35:17;101491.97;;;42.99;16.91
69316;BME280;56445;43.552;5.034;2023-05-08T15:37:44;101475.06;;;42.77;16.92
69316;BME280;56445;43.552;5.034;2023-05-08T15:40:11;101491.66;;;42.83;16.86
69316;BME280;56445;43.552;5.034;2023-05-08T15:42:38;101492.94;;;42.74;17.04
69316;BME280;56445;43.552;5.034;2023-05-08T15:45:06;101494.19;;;42.70;16.86
69316;BME280;56445;43.552;5.034;2023-05-08T15:47:52;101482.09;;;42.55;17.25
69316;BME280;56445;43.552;5.034;2023-05-08T15:50:39;101495.47;;;42.54;16.65
69316;BME280;56445;43.552;5.034;2023-05-08T15:53:09;101485.41;;;42.39;16.92
69316;BME280;56445;43.552;5.034;2023-05-08T15:55:38;101483.41;;;42.32;17.10
69316;BME280;56445;43.552;5.034;2023-05-08T15:58:06;101481.78;;;42.28;17.03
69316;BME280;56445;43.552;5.034;2023-05-08T16:00:33;101477.78;;;42.22;16.94
69316;BME280;56445;43.552;5.034;2023-05-08T16:03:10;101504.06;;;42.33;16.85
69316;BME280;56445;43.552;5.034;2023-05-08T16:05:40;101483.06;;;42.16;16.82
69316;BME280;56445;43.552;5.034;2023-05-08T16:08:07;101478.63;;;42.08;17.14
69316;BME280;56445;43.552;5.034;2023-05-08T16:10:39;101482.69;;;41.99;16.77
69316;BME280;56445;43.552;5.034;2023-05-08T16:13:07;101518.31;;;42.08;17.11
69316;BME280;56445;43.552;5.034;2023-05-08T16:15:34;101501.34;;;41.90;16.89
69316;BME280;56445;43.552;5.034;2023-05-08T16:18:02;101508.59;;;41.94;16.81
69316;BME280;56445;43.552;5.034;2023-05-08T16:20:31;101496.09;;;41.85;16.78
69316;BME280;56445;43.552;5.034;2023-05-08T16:23:02;101490.06;;;41.72;17.14
69316;BME280;56445;43.552;5.034;2023-05-08T16:25:30;101500.16;;;41.76;16.97
69316;BME280;56445;43.552;5.034;2023-05-08T16:28:05;101514.31;;;41.84;17.14
69316;BME280;56445;43.552;5.034;2023-05-08T16:30:45;101509.88;;;41.75;16.75
69316;BME280;56445;43.552;5.034;2023-05-08T16:33:14;101514.72;;;41.82;17.18
69316;BME280;56445;43.552;5.034;2023-05-08T16:35:42;101512.72;;;41.72;16.97
69316;BME280;56445;43.552;5.034;2023-05-08T16:38:09;101511.53;;;41.69;16.97
69316;BME280;56445;43.552;5.034;2023-05-08T16:40:37;101507.88;;;41.61;16.87
69316;BME280;56445;43.552;5.034;2023-05-08T16:43:04;101507.06;;;41.57;17.13
69316;BME280;56445;43.552;5.034;2023-05-08T16:45:35;101511.91;;;41.53;17.08
69316;BME280;56445;43.552;5.034;2023-05-08T16:48:11;101533.34;;;41.58;17.27
69316;BME280;56445;43.552;5.034;2023-05-08T16:50:41;101503.81;;;41.41;16.99
69316;BME280;56445;43.552;5.034;2023-05-08T16:53:34;101527.25;;;41.45;17.16
69316;BME280;56445;43.552;5.034;2023-05-08T16:56:02;101517.59;;;41.32;17.33
69316;BME280;56445;43.552;5.034;2023-05-08T16:58:29;101526.06;;;41.28;17.17
69316;BME280;56445;43.552;5.034;2023-05-08T17:00:56;101510.25;;;41.09;16.92
69316;BME280;56445;43.552;5.034;2023-05-08T17:03:24;101522.38;;;41.10;17.21
69316;BME280;56445;43.552;5.034;2023-05-08T17:05:54;101521.56;;;41.06;17.21
69316;BME280;56445;43.552;5.034;2023-05-08T17:08:30;101539.78;;;41.12;17.11
69316;BME280;56445;43.552;5.034;2023-05-08T17:11:20;101548.25;;;41.08;17.12
69316;BME280;56445;43.552;5.034;2023-05-08T17:13:50;101532.88;;;40.98;17.18
69316;BME280;56445;43.552;5.034;2023-05-08T17:16:17;101539.75;;;41.01;17.22
69316;BME280;56445;43.552;5.034;2023-05-08T17:18:49;101532.06;;;40.98;17.02
69316;BME280;56445;43.552;5.034;2023-05-08T17:21:48;101517.06;;;40.79;17.15
69316;BME280;56445;43.552;5.034;2023-05-08T17:24:20;101534.88;;;40.91;17.05
69316;BME280;56445;43.552;5.034;2023-05-08T17:26:47;101525.94;;;40.74;17.17
69316;BME280;56445;43.552;5.034;2023-05-08T17:29:16;101549.00;;;40.83;17.69
69316;BME280;56445;43.552;5.034;2023-05-08T17:31:59;101517.38;;;40.60;17.49
69316;BME280;56445;43.552;5.034;2023-05-08T17:34:37;101518.19;;;40.53;17.22
69316;BME280;56445;43.552;5.034;2023-05-08T17:37:12;101563.50;;;40.71;17.17
69316;BME280;56445;43.552;5.034;2023-05-08T17:39:40;101568.81;;;40.76;17.31
69316;BME280;56445;43.552;5.034;2023-05-08T17:42:11;101568.38;;;40.74;17.13
69316;BME280;56445;43.552;5.034;2023-05-08T17:45:00;101558.19;;;40.66;17.29
69316;BME280;56445;43.552;5.034;2023-05-08T17:47:30;101536.72;;;40.47;17.15
69316;BME280;56445;43.552;5.034;2023-05-08T17:50:00;101569.09;;;40.64;17.42
69316;BME280;56445;43.552;5.034;2023-05-08T17:52:34;101560.19;;;40.55;17.08
69316;BME280;56445;43.552;5.034;2023-05-08T17:55:02;101567.88;;;40.58;17.18
69316;BME280;56445;43.552;5.034;2023-05-08T17:57:33;101558.13;;;40.48;17.12
69316;BME280;56445;43.552;5.034;2023-05-08T18:00:04;101553.22;;;40.34;17.60
69316;BME280;56445;43.552;5.034;2023-05-08T18:02:48;101572.25;;;40.37;17.27
69316;BME280;56445;43.552;5.034;2023-05-08T18:05:44;101580.34;;;40.39;17.14
69316;BME280;56445;43.552;5.034;2023-05-08T18:08:15;101566.47;;;40.27;17.27
69316;BME280;56445;43.552;5.034;2023-05-08T18:10:45;101580.63;;;40.30;17.25
69316;BME280;56445;43.552;5.034;2023-05-08T18:13:12;101566.41;;;40.12;17.59
69316;BME280;56445;43.552;5.034;2023-05-08T18:15:39;101566.38;;;40.09;17.30
69316;BME280;56445;43.552;5.034;2023-05-08T18:18:07;101566.31;;;39.98;17.40
69316;BME280;56445;43.552;5.034;2023-05-08T18:20:36;101564.25;;;39.91;17.71
69316;BME280;56445;43.552;5.034;2023-05-08T18:23:04;101586.13;;;40.01;17.31
69316;BME280;56445;43.552;5.034;2023-05-08T18:25:31;101566.66;;;39.89;17.18
69316;BME280;56445;43.552;5.034;2023-05-08T18:27:58;101577.94;;;39.89;17.31
69316;BME280;56445;43.552;5.034;2023-05-08T18:30:26;101578.38;;;39.91;17.14
69316;BME280;56445;43.552;5.034;2023-05-08T18:32:53;101586.41;;;39.89;17.25
69316;BME280;56445;43.552;5.034;2023-05-08T18:35:20;101578.22;;;39.77;17.53
69316;BME280;56445;43.552;5.034;2023-05-08T18:37:47;101580.69;;;39.78;17.35
69316;BME280;56445;43.552;5.034;2023-05-08T18:40:14;101594.03;;;39.81;17.46
69316;BME280;56445;43.552;5.034;2023-05-08T18:42:41;101592.34;;;39.77;17.28
69316;BME280;56445;43.552;5.034;2023-05-08T18:45:09;101564.34;;;39.57;17.46
69316;BME280;56445;43.552;5.034;2023-05-08T18:47:36;101586.25;;;39.68;17.33
69316;BME280;56445;43.552;5.034;2023-05-08T18:50:03;101591.06;;;39.67;17.31